sensor_id;sensor_type;location;lat;lon;timestamp;pressure;altitude;pressure_sealevel;temperature;humidity
19526;BME280;9907;42.676;26.348;2023-04-26T00:01:17;97901.56;;;12.17;100.00
19526;BME280;9907;42.676;26.348;2023-04-26T00:03:42;97895.09;;;12.11;100.00
19526;BME280;9907;42.676;26.348;2023-04-26T00:06:08;97900.94;;;12.15;100.00
19526;BME280;9907;42.676;26.348;2023-04-26T00:08:34;97902.28;;;12.11;100.00
19526;BME280;9907;42.676;26.348;2023-04-26T00:11:00;97899.28;;;12.06;100.00
19526;BME280;9907;42.676;26.348;2023-04-26T00:13:25;97904.59;;;12.14;100.00
19526;BME280;9907;42.676;26.348;2023-04-26T00:15:51;97898.75;;;12.10;100.00
19526;BME280;9907;42.676;26.348;2023-04-26T00:18:17;97899.28;;;12.06;100.00
19526;BME280;9907;42.676;26.348;2023-04-26T00:20:42;97898.28;;;12.07;100.00
19526;BME280;9907;42.676;26.348;2023-04-26T00:23:08;97902.34;;;11.95;100.00
19526;BME280;9907;42.676;26.348;2023-04-26T00:25:35;97908.53;;;11.95;100.00
19526;BME280;9907;42.676;26.348;2023-04-26T00:28:01;97908.69;;;11.94;100.00
19526;BME280;9907;42.676;26.348;2023-04-26T00:30:27;97905.38;;;11.92;100.00
19526;BME280;9907;42.676;26.348;2023-04-26T00:32:52;97911.56;;;11.92;100.00
19526;BME280;9907;42.676;26.348;2023-04-26T00:35:18;97911.03;;;11.97;100.00
19526;BME280;9907;42.676;26.348;2023-04-26T00:37:43;97909.88;;;11.91;100.00
19526;BME280;9907;42.676;26.348;2023-04-26T00:40:09;97907.34;;;11.98;100.00
19526;BME280;9907;42.676;26.348;2023-04-26T00:42:37;97913.72;;;11.97;100.00
19526;BME280;9907;42.676;26.348;2023-04-26T00:45:05;97910.69;;;12.00;100.00
19526;BME280;9907;42.676;26.348;2023-04-26T00:47:31;97919.06;;;11.97;100.00
19526;BME280;9907;42.676;26.348;2023-04-26T00:49:58;97917.75;;;11.93;100.00
19526;BME280;9907;42.676;26.348;2023-04-26T00:52:25;97910.22;;;11.96;100.00
19526;BME280;9907;42.676;26.348;2023-04-26T00:54:52;97915.22;;;11.91;100.00
19526;BME280;9907;42.676;26.348;2023-04-26T00:57:18;97914.75;;;11.88;100.00
19526;BME280;9907;42.676;26.348;2023-04-26T00:59:43;97911.56;;;11.92;100.00
19526;BME280;9907;42.676;26.348;2023-04-26T01:02:09;97911.38;;;11.94;100.00
19526;BME280;9907;42.676;26.348;2023-04-26T01:04:34;97914.03;;;11.94;100.00
19526;BME280;9907;42.676;26.348;2023-04-26T01:07:01;97907.88;;;11.93;100.00
19526;BME280;9907;42.676;26.348;2023-04-26T01:09:30;97903.69;;;11.91;100.00
19526;BME280;9907;42.676;26.348;2023-04-26T01:11:56;97896.50;;;11.91;100.00
19526;BME280;9907;42.676;26.348;2023-04-26T01:14:23;97895.84;;;11.89;100.00
19526;BME280;9907;42.676;26.348;2023-04-26T01:16:49;97889.97;;;11.94;100.00
19526;BME280;9907;42.676;26.348;2023-04-26T01:19:15;97896.69;;;11.90;100.00
19526;BME280;9907;42.676;26.348;2023-04-26T01:21:41;97896.69;;;11.90;100.00
19526;BME280;9907;42.676;26.348;2023-04-26T01:24:11;97892.84;;;11.84;100.00
19526;BME280;9907;42.676;26.348;2023-04-26T01:26:40;97897.72;;;11.81;100.00
19526;BME280;9907;42.676;26.348;2023-04-26T01:29:13;97892.00;;;11.84;100.00
19526;BME280;9907;42.676;26.348;2023-04-26T01:31:39;97888.81;;;11.88;100.00
19526;BME280;9907;42.676;26.348;2023-04-26T01:34:05;97885.81;;;11.83;100.00
19526;BME280;9907;42.676;26.348;2023-04-26T01:36:30;97884.66;;;11.86;100.00
19526;BME280;9907;42.676;26.348;2023-04-26T01:38:56;97879.81;;;11.89;100.00
19526;BME280;9907;42.676;26.348;2023-04-26T01:41:22;97885.16;;;11.89;100.00
19526;BME280;9907;42.676;26.348;2023-04-26T01:43:48;97885.31;;;11.88;100.00
19526;BME280;9907;42.676;26.348;2023-04-26T01:46:14;97881.31;;;11.84;100.00
19526;BME280;9907;42.676;26.348;2023-04-26T01:48:39;97886.66;;;11.84;100.00
19526;BME280;9907;42.676;26.348;2023-04-26T01:51:05;97888.84;;;11.80;100.00
19526;BME280;9907;42.676;26.348;2023-04-26T01:53:30;97894.91;;;11.74;100.00
19526;BME280;9907;42.676;26.348;2023-04-26T01:55:59;97889.03;;;11.79;100.00
19526;BME280;9907;42.676;26.348;2023-04-26T01:58:25;97882.84;;;11.78;100.00
19526;BME280;9907;42.676;26.348;2023-04-26T02:00:51;97882.84;;;11.78;100.00
19526;BME280;9907;42.676;26.348;2023-04-26T02:03:16;97871.97;;;11.80;100.00
19526;BME280;9907;42.676;26.348;2023-04-26T02:05:42;97873.78;;;11.79;100.00
19526;BME280;9907;42.676;26.348;2023-04-26T02:08:07;97866.44;;;11.81;100.00
19526;BME280;9907;42.676;26.348;2023-04-26T02:10:33;97864.25;;;11.85;100.00
19526;BME280;9907;42.676;26.348;2023-04-26T02:12:58;97864.41;;;11.83;100.00
19526;BME280;9907;42.676;26.348;2023-04-26T02:15:23;97866.94;;;11.85;100.00
19526;BME280;9907;42.676;26.348;2023-04-26T02:17:49;97861.06;;;11.89;100.00
19526;BME280;9907;42.676;26.348;2023-04-26T02:20:14;97864.59;;;11.90;100.00
19526;BME280;9907;42.676;26.348;2023-04-26T02:22:40;97866.22;;;11.91;100.00
19526;BME280;9907;42.676;26.348;2023-04-26T02:25:06;97856.84;;;11.95;100.00
19526;BME280;9907;42.676;26.348;2023-04-26T02:27:32;97861.84;;;11.98;100.00
19526;BME280;9907;42.676;26.348;2023-04-26T02:29:58;97860.53;;;11.94;100.00
19526;BME280;9907;42.676;26.348;2023-04-26T02:32:23;97862.56;;;11.92;100.00
19526;BME280;9907;42.676;26.348;2023-04-26T02:34:49;97864.38;;;11.91;100.00
19526;BME280;9907;42.676;26.348;2023-04-26T02:37:14;97866.59;;;11.88;100.00
19526;BME280;9907;42.676;26.348;2023-04-26T02:39:40;97863.25;;;11.86;100.00
19526;BME280;9907;42.676;26.348;2023-04-26T02:42:09;97861.59;;;11.85;100.00
19526;BME280;9907;42.676;26.348;2023-04-26T02:44:37;97862.91;;;11.89;100.00
19526;BME280;9907;42.676;26.348;2023-04-26T02:47:03;97865.38;;;11.90;100.00
19526;BME280;9907;42.676;26.348;2023-04-26T02:49:29;97866.91;;;11.93;100.00
19526;BME280;9907;42.676;26.348;2023-04-26T02:51:55;97858.53;;;11.96;100.00
19526;BME280;9907;42.676;26.348;2023-04-26T02:54:21;97858.69;;;11.94;100.00
19526;BME280;9907;42.676;26.348;2023-04-26T02:56:46;97861.34;;;11.94;100.00
19526;BME280;9907;42.676;26.348;2023-04-26T02:59:12;97862.69;;;11.98;100.00
19526;BME280;9907;42.676;26.348;2023-04-26T03:01:37;97856.50;;;11.98;100.00
19526;BME280;9907;42.676;26.348;2023-04-26T03:04:03;97858.31;;;11.97;100.00
19526;BME280;9907;42.676;26.348;2023-04-26T03:06:29;97864.72;;;11.96;100.00
19526;BME280;9907;42.676;26.348;2023-04-26T03:08:54;97863.88;;;11.96;100.00
19526;BME280;9907;42.676;26.348;2023-04-26T03:11:19;97855.84;;;11.96;100.00
19526;BME280;9907;42.676;26.348;2023-04-26T03:13:45;97857.16;;;12.00;100.00
19526;BME280;9907;42.676;26.348;2023-04-26T03:16:10;97858.50;;;12.04;100.00
19526;BME280;9907;42.676;26.348;2023-04-26T03:18:36;97856.81;;;12.03;100.00
19526;BME280;9907;42.676;26.348;2023-04-26T03:21:02;97862.00;;;12.04;100.00
19526;BME280;9907;42.676;26.348;2023-04-26T03:23:28;97860.31;;;12.03;100.00
19526;BME280;9907;42.676;26.348;2023-04-26T03:25:53;97860.31;;;12.03;100.00
19526;BME280;9907;42.676;26.348;2023-04-26T03:28:19;97861.66;;;12.07;100.00
19526;BME280;9907;42.676;26.348;2023-04-26T03:30:44;97864.31;;;12.07;100.00
19526;BME280;9907;42.676;26.348;2023-04-26T03:33:10;97869.84;;;12.06;100.00
19526;BME280;9907;42.676;26.348;2023-04-26T03:35:36;97869.00;;;12.05;100.00
19526;BME280;9907;42.676;26.348;2023-04-26T03:38:01;97875.91;;;12.00;100.00
19526;BME280;9907;42.676;26.348;2023-04-26T03:40:26;97866.34;;;11.97;100.00
19526;BME280;9907;42.676;26.348;2023-04-26T03:42:52;97862.38;;;11.93;100.00
19526;BME280;9907;42.676;26.348;2023-04-26T03:45:17;97866.72;;;11.94;100.00
19526;BME280;9907;42.676;26.348;2023-04-26T03:47:43;97876.25;;;11.97;100.00
19526;BME280;9907;42.676;26.348;2023-04-26T03:50:08;97881.06;;;12.01;100.00
19526;BME280;9907;42.676;26.348;2023-04-26T03:52:34;97885.75;;;11.99;100.00
19526;BME280;9907;42.676;26.348;2023-04-26T03:55:00;97884.28;;;11.97;100.00
19526;BME280;9907;42.676;26.348;2023-04-26T03:57:25;97885.94;;;11.98;100.00
19526;BME280;9907;42.676;26.348;2023-04-26T03:59:50;97888.97;;;11.95;100.00
19526;BME280;9907;42.676;26.348;2023-04-26T04:02:16;97887.28;;;11.94;100.00
19526;BME280;9907;42.676;26.348;2023-04-26T04:04:41;97887.47;;;11.92;100.00
19526;BME280;9907;42.676;26.348;2023-04-26T04:07:07;97893.81;;;11.91;100.00
19526;BME280;9907;42.676;26.348;2023-04-26T04:09:32;97892.34;;;11.89;100.00
19526;BME280;9907;42.676;26.348;2023-04-26T04:11:58;97896.00;;;11.88;100.00
19526;BME280;9907;42.676;26.348;2023-04-26T04:14:23;97906.19;;;11.92;100.00
19526;BME280;9907;42.676;26.348;2023-04-26T04:16:48;97900.38;;;11.89;100.00
19526;BME280;9907;42.676;26.348;2023-04-26T04:19:14;97905.72;;;11.89;100.00
19526;BME280;9907;42.676;26.348;2023-04-26T04:21:40;97913.41;;;11.84;100.00
19526;BME280;9907;42.676;26.348;2023-04-26T04:24:07;97912.75;;;11.82;100.00
19526;BME280;9907;42.676;26.348;2023-04-26T04:26:33;97908.75;;;11.78;100.00
19526;BME280;9907;42.676;26.348;2023-04-26T04:28:58;97914.28;;;11.76;100.00
19526;BME280;9907;42.676;26.348;2023-04-26T04:31:34;97916.31;;;11.74;100.00
19526;BME280;9907;42.676;26.348;2023-04-26T04:33:59;97923.47;;;11.74;100.00
19526;BME280;9907;42.676;26.348;2023-04-26T04:36:25;97932.00;;;11.77;100.00
19526;BME280;9907;42.676;26.348;2023-04-26T04:38:50;97939.19;;;11.77;100.00
19526;BME280;9907;42.676;26.348;2023-04-26T04:41:17;97932.34;;;11.74;100.00
19526;BME280;9907;42.676;26.348;2023-04-26T04:43:44;97943.53;;;11.69;100.00
19526;BME280;9907;42.676;26.348;2023-04-26T04:46:10;97945.34;;;11.69;100.00
19526;BME280;9907;42.676;26.348;2023-04-26T04:48:37;97947.19;;;11.68;100.00
19526;BME280;9907;42.676;26.348;2023-04-26T04:51:03;97956.25;;;11.67;100.00
19526;BME280;9907;42.676;26.348;2023-04-26T04:53:29;97951.22;;;11.64;100.00
19526;BME280;9907;42.676;26.348;2023-04-26T04:55:54;97960.91;;;11.57;100.00
19526;BME280;9907;42.676;26.348;2023-04-26T04:58:21;97958.25;;;11.49;100.00
19526;BME280;9907;42.676;26.348;2023-04-26T05:00:47;97953.09;;;11.48;100.00
19526;BME280;9907;42.676;26.348;2023-04-26T05:03:15;97956.13;;;11.45;100.00
19526;BME280;9907;42.676;26.348;2023-04-26T05:05:40;97957.94;;;11.44;100.00
19526;BME280;9907;42.676;26.348;2023-04-26T05:08:06;97959.63;;;11.45;100.00
19526;BME280;9907;42.676;26.348;2023-04-26T05:10:33;97964.97;;;11.45;100.00
19526;BME280;9907;42.676;26.348;2023-04-26T05:12:59;97955.78;;;11.40;100.00
19526;BME280;9907;42.676;26.348;2023-04-26T05:15:24;97974.13;;;11.43;100.00
19526;BME280;9907;42.676;26.348;2023-04-26T05:17:50;97959.28;;;11.40;100.00
19526;BME280;9907;42.676;26.348;2023-04-26T05:20:16;97958.78;;;11.45;100.00
19526;BME280;9907;42.676;26.348;2023-04-26T05:22:41;97961.47;;;11.45;100.00
19526;BME280;9907;42.676;26.348;2023-04-26T05:25:13;97956.25;;;11.43;100.00
19526;BME280;9907;42.676;26.348;2023-04-26T05:27:38;97966.31;;;11.41;100.00
19526;BME280;9907;42.676;26.348;2023-04-26T05:30:05;97953.09;;;11.56;100.00
19526;BME280;9907;42.676;26.348;2023-04-26T05:32:31;97952.56;;;11.60;100.00
19526;BME280;9907;42.676;26.348;2023-04-26T05:34:57;97956.06;;;11.61;100.00
19526;BME280;9907;42.676;26.348;2023-04-26T05:37:25;97943.53;;;11.53;100.00
19526;BME280;9907;42.676;26.348;2023-04-26T05:39:51;97947.19;;;11.60;100.00
19526;BME280;9907;42.676;26.348;2023-04-26T05:42:16;97946.22;;;11.53;100.00
19526;BME280;9907;42.676;26.348;2023-04-26T05:44:42;97942.22;;;11.49;100.00
19526;BME280;9907;42.676;26.348;2023-04-26T05:47:08;97938.53;;;11.50;100.00
19526;BME280;9907;42.676;26.348;2023-04-26T05:49:34;97932.53;;;11.48;100.00
19526;BME280;9907;42.676;26.348;2023-04-26T05:51:59;97930.50;;;11.50;100.00
19526;BME280;9907;42.676;26.348;2023-04-26T05:54:25;97934.19;;;11.57;100.00
19526;BME280;9907;42.676;26.348;2023-04-26T05:56:50;97937.53;;;11.59;100.00
19526;BME280;9907;42.676;26.348;2023-04-26T05:59:16;97933.53;;;11.63;100.00
19526;BME280;9907;42.676;26.348;2023-04-26T06:01:42;97926.13;;;11.65;100.00
19526;BME280;9907;42.676;26.348;2023-04-26T06:04:07;97932.50;;;11.73;96.18
19526;BME280;9907;42.676;26.348;2023-04-26T06:06:32;97932.66;;;11.79;96.75
19526;BME280;9907;42.676;26.348;2023-04-26T06:08:58;97928.44;;;11.93;93.27
19526;BME280;9907;42.676;26.348;2023-04-26T06:11:23;97916.03;;;12.00;90.00
19526;BME280;9907;42.676;26.348;2023-04-26T06:13:49;97925.22;;;12.05;89.88
19526;BME280;9907;42.676;26.348;2023-04-26T06:16:14;97920.66;;;12.14;89.15
19526;BME280;9907;42.676;26.348;2023-04-26T06:18:40;97919.47;;;12.16;86.86
19526;BME280;9907;42.676;26.348;2023-04-26T06:21:05;97915.91;;;12.24;88.56
19526;BME280;9907;42.676;26.348;2023-04-26T06:23:31;97903.97;;;12.35;87.07
19526;BME280;9907;42.676;26.348;2023-04-26T06:25:56;97907.09;;;12.46;84.74
19526;BME280;9907;42.676;26.348;2023-04-26T06:28:22;97899.25;;;12.67;83.22
19526;BME280;9907;42.676;26.348;2023-04-26T06:30:47;97897.94;;;12.86;83.78
19526;BME280;9907;42.676;26.348;2023-04-26T06:33:13;97898.75;;;13.18;84.69
19526;BME280;9907;42.676;26.348;2023-04-26T06:35:39;97901.38;;;13.40;86.53
19526;BME280;9907;42.676;26.348;2023-04-26T06:38:05;97896.66;;;13.42;81.16
19526;BME280;9907;42.676;26.348;2023-04-26T06:40:30;97896.78;;;13.63;80.70
19526;BME280;9907;42.676;26.348;2023-04-26T06:42:56;97896.59;;;14.09;81.47
19526;BME280;9907;42.676;26.348;2023-04-26T06:45:22;97895.66;;;14.17;81.09
19526;BME280;9907;42.676;26.348;2023-04-26T06:47:50;97902.13;;;14.22;90.45
19526;BME280;9907;42.676;26.348;2023-04-26T06:50:16;97892.97;;;14.17;99.58
19526;BME280;9907;42.676;26.348;2023-04-26T06:52:42;97900.00;;;14.18;100.00
19526;BME280;9907;42.676;26.348;2023-04-26T06:55:08;97908.25;;;14.01;100.00
19526;BME280;9907;42.676;26.348;2023-04-26T06:57:33;97903.19;;;13.92;100.00
19526;BME280;9907;42.676;26.348;2023-04-26T06:59:59;97905.66;;;13.93;100.00
19526;BME280;9907;42.676;26.348;2023-04-26T07:02:24;97902.34;;;13.77;100.00
19526;BME280;9907;42.676;26.348;2023-04-26T07:04:50;97905.88;;;13.92;90.43
19526;BME280;9907;42.676;26.348;2023-04-26T07:07:16;97901.41;;;13.99;84.25
19526;BME280;9907;42.676;26.348;2023-04-26T07:09:42;97904.47;;;13.96;78.28
19526;BME280;9907;42.676;26.348;2023-04-26T07:12:11;97899.66;;;13.91;75.35
19526;BME280;9907;42.676;26.348;2023-04-26T07:14:37;97911.31;;;13.98;76.22
19526;BME280;9907;42.676;26.348;2023-04-26T07:17:05;97906.13;;;14.11;77.63
19526;BME280;9907;42.676;26.348;2023-04-26T07:19:31;97902.63;;;14.11;82.55
19526;BME280;9907;42.676;26.348;2023-04-26T07:21:56;97913.22;;;14.19;85.17
19526;BME280;9907;42.676;26.348;2023-04-26T07:24:22;97908.91;;;14.18;89.63
19526;BME280;9907;42.676;26.348;2023-04-26T07:26:47;97904.38;;;14.19;77.87
19526;BME280;9907;42.676;26.348;2023-04-26T07:29:13;97907.75;;;14.27;75.62
19526;BME280;9907;42.676;26.348;2023-04-26T07:31:38;97895.94;;;14.36;75.37
19526;BME280;9907;42.676;26.348;2023-04-26T07:34:04;97905.84;;;14.36;77.28
19526;BME280;9907;42.676;26.348;2023-04-26T07:36:29;97902.31;;;14.35;78.85
19526;BME280;9907;42.676;26.348;2023-04-26T07:38:55;97914.63;;;14.30;78.17
19526;BME280;9907;42.676;26.348;2023-04-26T07:41:21;97915.25;;;14.32;77.43
19526;BME280;9907;42.676;26.348;2023-04-26T07:43:46;97929.06;;;14.29;76.28
19526;BME280;9907;42.676;26.348;2023-04-26T07:46:11;97920.47;;;14.19;76.59
19526;BME280;9907;42.676;26.348;2023-04-26T07:48:37;97927.50;;;14.20;77.13
19526;BME280;9907;42.676;26.348;2023-04-26T07:51:09;97929.25;;;14.27;78.90
19526;BME280;9907;42.676;26.348;2023-04-26T07:53:35;97928.78;;;14.24;72.94
19526;BME280;9907;42.676;26.348;2023-04-26T07:56:03;97935.00;;;14.24;73.03
19526;BME280;9907;42.676;26.348;2023-04-26T07:58:30;97933.44;;;14.30;76.17
19526;BME280;9907;42.676;26.348;2023-04-26T08:00:57;97933.31;;;14.23;79.56
19526;BME280;9907;42.676;26.348;2023-04-26T08:03:23;97935.22;;;14.23;83.16
19526;BME280;9907;42.676;26.348;2023-04-26T08:05:48;97937.13;;;14.29;89.35
19526;BME280;9907;42.676;26.348;2023-04-26T08:08:14;97931.19;;;14.33;94.31
19526;BME280;9907;42.676;26.348;2023-04-26T08:10:40;97935.00;;;14.09;96.66
19526;BME280;9907;42.676;26.348;2023-04-26T08:13:07;97934.84;;;14.11;96.76
19526;BME280;9907;42.676;26.348;2023-04-26T08:15:32;97930.38;;;14.18;95.74
19526;BME280;9907;42.676;26.348;2023-04-26T08:17:58;97933.44;;;14.30;92.59
19526;BME280;9907;42.676;26.348;2023-04-26T08:20:23;97925.91;;;14.54;91.42
19526;BME280;9907;42.676;26.348;2023-04-26T08:22:54;97925.41;;;14.66;89.69
19526;BME280;9907;42.676;26.348;2023-04-26T08:25:20;97923.44;;;14.74;85.65
19526;BME280;9907;42.676;26.348;2023-04-26T08:27:45;97930.41;;;14.90;85.48
19526;BME280;9907;42.676;26.348;2023-04-26T08:30:11;97912.09;;;14.79;87.54
19526;BME280;9907;42.676;26.348;2023-04-26T08:32:36;97924.25;;;14.75;85.91
19526;BME280;9907;42.676;26.348;2023-04-26T08:35:02;97916.66;;;15.21;85.27
19526;BME280;9907;42.676;26.348;2023-04-26T08:37:28;97913.25;;;15.54;82.22
19526;BME280;9907;42.676;26.348;2023-04-26T08:39:53;97922.78;;;15.85;79.85
19526;BME280;9907;42.676;26.348;2023-04-26T08:42:19;97915.72;;;15.84;78.27
19526;BME280;9907;42.676;26.348;2023-04-26T08:44:49;97915.31;;;16.21;78.77
19526;BME280;9907;42.676;26.348;2023-04-26T08:47:18;97909.13;;;16.27;76.64
19526;BME280;9907;42.676;26.348;2023-04-26T08:49:52;97910.22;;;16.39;75.90
19526;BME280;9907;42.676;26.348;2023-04-26T08:52:26;97914.91;;;16.24;72.63
19526;BME280;9907;42.676;26.348;2023-04-26T08:54:53;97907.34;;;16.47;72.40
19526;BME280;9907;42.676;26.348;2023-04-26T08:57:21;97908.94;;;16.89;75.29
19526;BME280;9907;42.676;26.348;2023-04-26T08:59:46;97907.84;;;16.71;69.78
19526;BME280;9907;42.676;26.348;2023-04-26T09:02:20;97906.81;;;16.59;69.76
19526;BME280;9907;42.676;26.348;2023-04-26T09:04:47;97906.88;;;16.85;70.21
19526;BME280;9907;42.676;26.348;2023-04-26T09:07:34;97903.78;;;17.01;75.05
19526;BME280;9907;42.676;26.348;2023-04-26T09:10:03;97905.63;;;17.00;72.80
19526;BME280;9907;42.676;26.348;2023-04-26T09:12:29;97901.91;;;16.95;72.54
19526;BME280;9907;42.676;26.348;2023-04-26T09:14:54;97901.72;;;17.03;69.40
19526;BME280;9907;42.676;26.348;2023-04-26T09:17:27;97900.47;;;16.99;71.02
19526;BME280;9907;42.676;26.348;2023-04-26T09:19:53;97900.25;;;17.00;63.22
19526;BME280;9907;42.676;26.348;2023-04-26T09:22:35;97901.28;;;17.26;68.24
19526;BME280;9907;42.676;26.348;2023-04-26T09:25:04;97891.94;;;17.02;66.51
19526;BME280;9907;42.676;26.348;2023-04-26T09:27:33;97897.16;;;17.10;70.88
19526;BME280;9907;42.676;26.348;2023-04-26T09:30:03;97892.38;;;16.99;66.58
19526;BME280;9907;42.676;26.348;2023-04-26T09:32:46;97895.88;;;16.93;67.95
19526;BME280;9907;42.676;26.348;2023-04-26T09:35:24;97901.03;;;16.75;68.09
19526;BME280;9907;42.676;26.348;2023-04-26T09:40:21;97893.56;;;16.83;68.88
19526;BME280;9907;42.676;26.348;2023-04-26T09:42:58;97885.69;;;16.82;65.94
19526;BME280;9907;42.676;26.348;2023-04-26T09:45:25;97889.25;;;16.95;62.28
19526;BME280;9907;42.676;26.348;2023-04-26T09:47:51;97883.84;;;17.02;63.01
19526;BME280;9907;42.676;26.348;2023-04-26T09:50:29;97886.31;;;16.84;62.11
19526;BME280;9907;42.676;26.348;2023-04-26T09:52:56;97889.22;;;16.82;60.29
19526;BME280;9907;42.676;26.348;2023-04-26T09:55:30;97885.72;;;16.88;59.53
19526;BME280;9907;42.676;26.348;2023-04-26T09:57:56;97890.28;;;16.94;59.41
19526;BME280;9907;42.676;26.348;2023-04-26T10:00:27;97893.16;;;16.93;60.67
19526;BME280;9907;42.676;26.348;2023-04-26T10:02:54;97883.84;;;16.95;60.01
19526;BME280;9907;42.676;26.348;2023-04-26T10:05:21;97878.25;;;16.97;58.82
19526;BME280;9907;42.676;26.348;2023-04-26T10:07:48;97872.25;;;17.01;59.54
19526;BME280;9907;42.676;26.348;2023-04-26T10:10:13;97873.50;;;17.06;59.17
19526;BME280;9907;42.676;26.348;2023-04-26T10:12:40;97884.47;;;17.04;60.42
19526;BME280;9907;42.676;26.348;2023-04-26T10:15:10;97881.34;;;16.94;60.01
19526;BME280;9907;42.676;26.348;2023-04-26T10:17:37;97874.47;;;16.78;58.95
19526;BME280;9907;42.676;26.348;2023-04-26T10:20:03;97883.59;;;16.71;59.64
19526;BME280;9907;42.676;26.348;2023-04-26T10:22:34;97876.97;;;16.86;60.35
19526;BME280;9907;42.676;26.348;2023-04-26T10:25:01;97882.19;;;16.94;60.44
19526;BME280;9907;42.676;26.348;2023-04-26T10:30:09;97879.50;;;16.88;61.64
19526;BME280;9907;42.676;26.348;2023-04-26T10:35:23;97866.16;;;16.67;63.87
19526;BME280;9907;42.676;26.348;2023-04-26T10:38:17;97869.50;;;16.82;62.28
19526;BME280;9907;42.676;26.348;2023-04-26T10:40:42;97867.44;;;16.77;63.50
19526;BME280;9907;42.676;26.348;2023-04-26T10:45:36;97858.94;;;16.93;61.68
19526;BME280;9907;42.676;26.348;2023-04-26T10:48:30;97854.81;;;16.97;60.92
19526;BME280;9907;42.676;26.348;2023-04-26T10:53:26;97857.28;;;16.92;61.30
19526;BME280;9907;42.676;26.348;2023-04-26T10:55:52;97862.09;;;17.10;61.22
19526;BME280;9907;42.676;26.348;2023-04-26T11:03:39;97852.72;;;17.13;60.66
19526;BME280;9907;42.676;26.348;2023-04-26T11:06:06;97848.78;;;17.02;60.98
19526;BME280;9907;42.676;26.348;2023-04-26T11:08:33;97854.19;;;17.15;61.55
19526;BME280;9907;42.676;26.348;2023-04-26T11:11:04;97849.84;;;17.21;60.16
19526;BME280;9907;42.676;26.348;2023-04-26T11:13:35;97850.03;;;17.19;60.36
19526;BME280;9907;42.676;26.348;2023-04-26T11:16:03;97848.41;;;17.18;60.53
19526;BME280;9907;42.676;26.348;2023-04-26T11:18:30;97838.00;;;17.28;61.58
19526;BME280;9907;42.676;26.348;2023-04-26T11:20:56;97840.91;;;17.27;61.36
19526;BME280;9907;42.676;26.348;2023-04-26T11:23:23;97845.06;;;17.29;61.82
19526;BME280;9907;42.676;26.348;2023-04-26T11:25:49;97842.38;;;17.29;61.56
19526;BME280;9907;42.676;26.348;2023-04-26T11:28:17;97836.97;;;17.36;62.86
19526;BME280;9907;42.676;26.348;2023-04-26T11:30:43;97842.13;;;17.37;63.83
19526;BME280;9907;42.676;26.348;2023-04-26T11:33:15;97844.03;;;17.11;66.55
19526;BME280;9907;42.676;26.348;2023-04-26T11:35:48;97848.16;;;16.87;65.26
19526;BME280;9907;42.676;26.348;2023-04-26T11:38:14;97847.50;;;16.59;66.15
19526;BME280;9907;42.676;26.348;2023-04-26T11:40:40;97840.03;;;16.67;66.16
19526;BME280;9907;42.676;26.348;2023-04-26T11:43:06;97847.31;;;16.86;66.10
19526;BME280;9907;42.676;26.348;2023-04-26T11:45:35;97854.16;;;16.89;66.10
19526;BME280;9907;42.676;26.348;2023-04-26T11:48:03;97847.28;;;16.67;65.33
19526;BME280;9907;42.676;26.348;2023-04-26T11:50:30;97840.84;;;16.68;65.40
19526;BME280;9907;42.676;26.348;2023-04-26T11:52:58;97841.09;;;16.73;66.18
19526;BME280;9907;42.676;26.348;2023-04-26T11:55:30;97844.56;;;16.60;65.82
19526;BME280;9907;42.676;26.348;2023-04-26T11:58:01;97850.19;;;16.72;66.88
19526;BME280;9907;42.676;26.348;2023-04-26T12:00:33;97847.91;;;16.69;66.86
19526;BME280;9907;42.676;26.348;2023-04-26T12:03:04;97849.53;;;16.57;66.98
19526;BME280;9907;42.676;26.348;2023-04-26T12:05:31;97853.03;;;16.50;67.90
19526;BME280;9907;42.676;26.348;2023-04-26T12:07:59;97853.22;;;16.55;68.04
19526;BME280;9907;42.676;26.348;2023-04-26T12:10:26;97852.81;;;16.52;67.89
19526;BME280;9907;42.676;26.348;2023-04-26T12:12:55;97851.38;;;16.49;67.80
19526;BME280;9907;42.676;26.348;2023-04-26T12:15:25;97853.81;;;16.38;67.92
19526;BME280;9907;42.676;26.348;2023-04-26T12:17:54;97853.38;;;16.34;67.77
19526;BME280;9907;42.676;26.348;2023-04-26T12:20:26;97856.47;;;16.25;69.20
19526;BME280;9907;42.676;26.348;2023-04-26T12:23:04;97855.00;;;16.22;69.18
19526;BME280;9907;42.676;26.348;2023-04-26T12:25:31;97857.47;;;16.11;68.76
19526;BME280;9907;42.676;26.348;2023-04-26T12:27:58;97859.50;;;16.08;69.48
19526;BME280;9907;42.676;26.348;2023-04-26T12:30:26;97858.47;;;16.03;70.86
19526;BME280;9907;42.676;26.348;2023-04-26T12:32:52;97858.88;;;16.00;72.68
19526;BME280;9907;42.676;26.348;2023-04-26T12:35:17;97857.66;;;16.09;76.79
19526;BME280;9907;42.676;26.348;2023-04-26T12:37:43;97851.81;;;16.05;84.69
19526;BME280;9907;42.676;26.348;2023-04-26T12:40:09;97853.91;;;16.03;87.30
19526;BME280;9907;42.676;26.348;2023-04-26T12:42:36;97851.34;;;15.89;95.57
19526;BME280;9907;42.676;26.348;2023-04-26T12:45:02;97850.28;;;15.90;94.46
19526;BME280;9907;42.676;26.348;2023-04-26T12:47:29;97846.75;;;15.83;96.20
19526;BME280;9907;42.676;26.348;2023-04-26T12:49:55;97854.59;;;15.78;94.88
19526;BME280;9907;42.676;26.348;2023-04-26T12:52:21;97852.69;;;15.72;94.19
19526;BME280;9907;42.676;26.348;2023-04-26T12:54:46;97850.44;;;15.75;95.86
19526;BME280;9907;42.676;26.348;2023-04-26T12:57:13;97850.03;;;15.78;94.18
19526;BME280;9907;42.676;26.348;2023-04-26T12:59:38;97843.00;;;15.77;93.15
19526;BME280;9907;42.676;26.348;2023-04-26T13:02:05;97842.94;;;15.71;95.12
19526;BME280;9907;42.676;26.348;2023-04-26T13:04:32;97846.84;;;15.62;100.00
19526;BME280;9907;42.676;26.348;2023-04-26T13:06:58;97844.97;;;15.62;98.42
19526;BME280;9907;42.676;26.348;2023-04-26T13:09:23;97852.84;;;15.64;94.57
19526;BME280;9907;42.676;26.348;2023-04-26T13:11:49;97852.47;;;15.67;94.99